AAL3125 KJFK-KDFW
Flight info
| Callsign | AAL3125 |
|---|---|
| Flight time | 3h 45m |
| Altitude | 38000 |
| Route | DCT RBV Q430 SAAME/N0431F320 J6 MRB/N0455F380 J6 HVQ Q68 LITTR DCT FEWWW SEEVR4 |
| Aircraft | A20N/M-SDE2E3FGHIRWXY/LB1 |
Departure
| Time | 2026-05-08 17:19 |
|---|---|
| Airport | John F. Kennedy International Airport (KJFK) |
Arrival
| Time | 2026-05-08 21:05 |
|---|---|
| Airport | Dallas Fort Worth International Airport (KDFW) |
| Time | Latitude | Longitude | Altitude | Speed | Heading |
|---|---|---|---|---|---|
| 2026-05-08 17:01 | 40.63713 | -73.78021 | 41 ft | 0 kts | 263° |
| 2026-05-08 17:07 | 40.63715 | -73.78001 | 24 ft | 4 kts | 261° |
| 2026-05-08 17:07 | 40.63720 | -73.77966 | 22 ft | 4 kts | 256° |
| 2026-05-08 17:07 | 40.63729 | -73.77933 | 25 ft | 4 kts | 240° |
| 2026-05-08 17:07 | 40.63745 | -73.77911 | 26 ft | 3 kts | 178° |
| 2026-05-08 17:08 | 40.63748 | -73.77911 | 22 ft | 0 kts | 173° |
| 2026-05-08 17:12 | 40.63746 | -73.77911 | 22 ft | 1 kts | 173° |
| 2026-05-08 17:12 | 40.63726 | -73.77907 | 23 ft | 4 kts | 173° |
| 2026-05-08 17:12 | 40.63677 | -73.77899 | 24 ft | 10 kts | 173° |
| 2026-05-08 17:13 | 40.63598 | -73.77883 | 25 ft | 13 kts | 161° |
| 2026-05-08 17:13 | 40.63538 | -73.77783 | 21 ft | 16 kts | 118° |
| 2026-05-08 17:13 | 40.63506 | -73.77722 | 22 ft | 0 kts | 158° |
| 2026-05-08 17:13 | 40.63489 | -73.77724 | 23 ft | 4 kts | 194° |
| 2026-05-08 17:14 | 40.63464 | -73.77737 | 24 ft | 3 kts | 206° |
| 2026-05-08 17:14 | 40.63438 | -73.77757 | 28 ft | 7 kts | 211° |
| 2026-05-08 17:14 | 40.63377 | -73.77817 | 26 ft | 13 kts | 214° |
| 2026-05-08 17:14 | 40.63298 | -73.77786 | 27 ft | 14 kts | 123° |
| 2026-05-08 17:15 | 40.63243 | -73.77661 | 27 ft | 17 kts | 121° |
| 2026-05-08 17:15 | 40.63180 | -73.77523 | 30 ft | 18 kts | 121° |
| 2026-05-08 17:15 | 40.63109 | -73.77367 | 27 ft | 22 kts | 121° |
| 2026-05-08 17:15 | 40.63031 | -73.77193 | 31 ft | 12 kts | 120° |
| 2026-05-08 17:16 | 40.63018 | -73.77164 | 28 ft | 5 kts | 120° |
| 2026-05-08 17:16 | 40.62994 | -73.77109 | 25 ft | 8 kts | 120° |
| 2026-05-08 17:16 | 40.62938 | -73.77089 | 24 ft | 9 kts | 201° |
| 2026-05-08 17:16 | 40.62912 | -73.77111 | 25 ft | 0 kts | 212° |
| 2026-05-08 17:17 | 40.62909 | -73.77113 | 25 ft | 1 kts | 212° |
| 2026-05-08 17:17 | 40.62897 | -73.77123 | 25 ft | 3 kts | 212° |
| 2026-05-08 17:17 | 40.62849 | -73.77164 | 24 ft | 3 kts | 213° |
| 2026-05-08 17:17 | 40.62822 | -73.77190 | 24 ft | 7 kts | 227° |
| 2026-05-08 17:18 | 40.62835 | -73.77261 | 26 ft | 11 kts | 302° |
| 2026-05-08 17:18 | 40.62841 | -73.77274 | 26 ft | 0 kts | 302° |
| 2026-05-08 17:18 | 40.62883 | -73.77364 | 26 ft | 38 kts | 300° |
| 2026-05-08 17:18 | 40.63125 | -73.77904 | 28 ft | 98 kts | 301° |
| 2026-05-08 17:19 | 40.63566 | -73.78873 | 29 ft | 145 kts | 301° |
| 2026-05-08 17:19 | 40.64151 | -73.80059 | 375 ft | 160 kts | 301° |
| 2026-05-08 17:19 | 40.64777 | -73.81296 | 1068 ft | 162 kts | 300° |
| 2026-05-08 17:19 | 40.65415 | -73.82496 | 1859 ft | 158 kts | 301° |
| 2026-05-08 17:20 | 40.65853 | -73.83818 | 2464 ft | 163 kts | 278° |
| 2026-05-08 17:20 | 40.65770 | -73.85342 | 3083 ft | 175 kts | 255° |
| 2026-05-08 17:20 | 40.64838 | -73.87278 | 3700 ft | 205 kts | 231° |
| 2026-05-08 17:20 | 40.64148 | -73.88209 | 3954 ft | 223 kts | 229° |
| 2026-05-08 17:21 | 40.62991 | -73.89657 | 4429 ft | 230 kts | 227° |
| 2026-05-08 17:21 | 40.61854 | -73.91119 | 4893 ft | 229 kts | 230° |
| 2026-05-08 17:21 | 40.60972 | -73.92836 | 5343 ft | 228 kts | 243° |
| 2026-05-08 17:21 | 40.60026 | -73.94531 | 5801 ft | 235 kts | 231° |
| 2026-05-08 17:22 | 40.58796 | -73.96087 | 6289 ft | 251 kts | 226° |
| 2026-05-08 17:22 | 40.57497 | -73.97653 | 6804 ft | 256 kts | 227° |
| 2026-05-08 17:22 | 40.56219 | -73.99268 | 7778 ft | 254 kts | 230° |
| 2026-05-08 17:22 | 40.54971 | -74.00927 | 8694 ft | 255 kts | 231° |
| 2026-05-08 17:23 | 40.53734 | -74.02632 | 9576 ft | 260 kts | 232° |
| 2026-05-08 17:23 | 40.52504 | -74.04356 | 10372 ft | 265 kts | 233° |
| 2026-05-08 17:23 | 40.51196 | -74.06209 | 10732 ft | 287 kts | 233° |
| 2026-05-08 17:23 | 40.49782 | -74.08217 | 11039 ft | 308 kts | 233° |
| 2026-05-08 17:24 | 40.48300 | -74.10302 | 11761 ft | 314 kts | 233° |
| 2026-05-08 17:24 | 40.46794 | -74.12406 | 12570 ft | 317 kts | 234° |
| 2026-05-08 17:24 | 40.45271 | -74.14533 | 13325 ft | 321 kts | 234° |
| 2026-05-08 17:24 | 40.43748 | -74.16664 | 14068 ft | 325 kts | 235° |
| 2026-05-08 17:25 | 40.42198 | -74.18834 | 14796 ft | 327 kts | 234° |
| 2026-05-08 17:25 | 40.40636 | -74.21023 | 15518 ft | 329 kts | 234° |
| 2026-05-08 17:25 | 40.39063 | -74.23227 | 16233 ft | 332 kts | 234° |
| 2026-05-08 17:25 | 40.37475 | -74.25453 | 16932 ft | 335 kts | 234° |
| 2026-05-08 17:26 | 40.35870 | -74.27699 | 17622 ft | 338 kts | 234° |
| 2026-05-08 17:26 | 40.34256 | -74.29959 | 18306 ft | 341 kts | 233° |
| 2026-05-08 17:26 | 40.32621 | -74.32244 | 18909 ft | 343 kts | 234° |
| 2026-05-08 17:26 | 40.31000 | -74.34507 | 19508 ft | 346 kts | 234° |
| 2026-05-08 17:27 | 40.29347 | -74.36813 | 20077 ft | 349 kts | 234° |
| 2026-05-08 17:27 | 40.27675 | -74.39143 | 20608 ft | 351 kts | 234° |
| 2026-05-08 17:27 | 40.26003 | -74.41467 | 21304 ft | 351 kts | 235° |
| 2026-05-08 17:27 | 40.24321 | -74.43807 | 21867 ft | 354 kts | 235° |
| 2026-05-08 17:28 | 40.22637 | -74.46168 | 22429 ft | 354 kts | 237° |
| 2026-05-08 17:28 | 40.21229 | -74.48765 | 22988 ft | 347 kts | 248° |
| 2026-05-08 17:28 | 40.20284 | -74.51637 | 23539 ft | 341 kts | 258° |
| 2026-05-08 17:28 | 40.19808 | -74.54662 | 23993 ft | 339 kts | 268° |
| 2026-05-08 17:29 | 40.19584 | -74.57736 | 24439 ft | 341 kts | 268° |
| 2026-05-08 17:29 | 40.19352 | -74.60794 | 24873 ft | 343 kts | 267° |
| 2026-05-08 17:29 | 40.19109 | -74.63922 | 25306 ft | 346 kts | 267° |
| 2026-05-08 17:29 | 40.18862 | -74.67063 | 25734 ft | 348 kts | 267° |
| 2026-05-08 17:30 | 40.18612 | -74.70221 | 26148 ft | 350 kts | 267° |
| 2026-05-08 17:30 | 40.18360 | -74.73399 | 26556 ft | 353 kts | 267° |
| 2026-05-08 17:30 | 40.18105 | -74.76601 | 26945 ft | 355 kts | 267° |
| 2026-05-08 17:30 | 40.17848 | -74.79823 | 27338 ft | 357 kts | 267° |
| 2026-05-08 17:31 | 40.17588 | -74.83067 | 27718 ft | 360 kts | 267° |
| 2026-05-08 17:31 | 40.17325 | -74.86335 | 28077 ft | 362 kts | 267° |
| 2026-05-08 17:31 | 40.17060 | -74.89623 | 28434 ft | 364 kts | 267° |
| 2026-05-08 17:31 | 40.16796 | -74.92887 | 28774 ft | 366 kts | 267° |
| 2026-05-08 17:32 | 40.16525 | -74.96214 | 29111 ft | 369 kts | 266° |
| 2026-05-08 17:32 | 40.16253 | -74.99558 | 29440 ft | 371 kts | 266° |
| 2026-05-08 17:32 | 40.15979 | -75.02897 | 29774 ft | 373 kts | 266° |
| 2026-05-08 17:32 | 40.15701 | -75.06277 | 30071 ft | 375 kts | 266° |
| 2026-05-08 17:33 | 40.15422 | -75.09669 | 30343 ft | 377 kts | 266° |
| 2026-05-08 17:33 | 40.15137 | -75.13113 | 30626 ft | 378 kts | 266° |
| 2026-05-08 17:33 | 40.14853 | -75.16525 | 30929 ft | 380 kts | 266° |
| 2026-05-08 17:33 | 40.14569 | -75.19935 | 31260 ft | 380 kts | 266° |
| 2026-05-08 17:34 | 40.14281 | -75.23367 | 31645 ft | 379 kts | 266° |
| 2026-05-08 17:34 | 40.13992 | -75.26795 | 32056 ft | 377 kts | 266° |
| 2026-05-08 17:34 | 40.13706 | -75.30176 | 32447 ft | 375 kts | 266° |
| 2026-05-08 17:34 | 40.13418 | -75.33581 | 32829 ft | 374 kts | 266° |
| 2026-05-08 17:35 | 40.13134 | -75.36924 | 33200 ft | 372 kts | 266° |
| 2026-05-08 17:35 | 40.12847 | -75.40288 | 33548 ft | 371 kts | 266° |
| 2026-05-08 17:35 | 40.12559 | -75.43651 | 33908 ft | 370 kts | 266° |
| 2026-05-08 17:35 | 40.12274 | -75.46966 | 34236 ft | 368 kts | 266° |
| 2026-05-08 17:36 | 40.11988 | -75.50289 | 34472 ft | 368 kts | 266° |
| 2026-05-08 17:36 | 40.11705 | -75.53570 | 34692 ft | 368 kts | 266° |
| 2026-05-08 17:36 | 40.11416 | -75.56910 | 34896 ft | 368 kts | 266° |
| 2026-05-08 17:36 | 40.11129 | -75.60203 | 35118 ft | 368 kts | 266° |
| 2026-05-08 17:37 | 40.10836 | -75.63555 | 35343 ft | 368 kts | 266° |
| 2026-05-08 17:37 | 40.10546 | -75.66877 | 35552 ft | 368 kts | 266° |
| 2026-05-08 17:37 | 40.10253 | -75.70207 | 35762 ft | 368 kts | 266° |
| 2026-05-08 17:37 | 40.09964 | -75.73485 | 35954 ft | 368 kts | 266° |
| 2026-05-08 17:38 | 40.09670 | -75.76807 | 36136 ft | 368 kts | 266° |
| 2026-05-08 17:38 | 40.09377 | -75.80108 | 36310 ft | 368 kts | 266° |
| 2026-05-08 17:38 | 40.09080 | -75.83440 | 36516 ft | 367 kts | 266° |
| 2026-05-08 17:38 | 40.08786 | -75.86739 | 36699 ft | 367 kts | 266° |
| 2026-05-08 17:39 | 40.08488 | -75.90066 | 36868 ft | 367 kts | 266° |
| 2026-05-08 17:39 | 40.08191 | -75.93375 | 37035 ft | 367 kts | 266° |
| 2026-05-08 17:39 | 40.07894 | -75.96668 | 37191 ft | 367 kts | 266° |
| 2026-05-08 17:39 | 40.07593 | -76.00002 | 37353 ft | 367 kts | 266° |
| 2026-05-08 17:40 | 40.07292 | -76.03318 | 37495 ft | 367 kts | 266° |
| 2026-05-08 17:40 | 40.06992 | -76.06616 | 37656 ft | 367 kts | 266° |
| 2026-05-08 17:40 | 40.06690 | -76.09929 | 37809 ft | 366 kts | 266° |
| 2026-05-08 17:40 | 40.06392 | -76.13183 | 37927 ft | 363 kts | 266° |
| 2026-05-08 17:41 | 40.05789 | -76.19736 | 37977 ft | 363 kts | 266° |
| 2026-05-08 17:41 | 40.05184 | -76.26271 | 37978 ft | 363 kts | 266° |
| 2026-05-08 17:42 | 40.04574 | -76.32821 | 37985 ft | 363 kts | 266° |
| 2026-05-08 17:42 | 40.03964 | -76.39331 | 37983 ft | 362 kts | 266° |
| 2026-05-08 17:43 | 40.03003 | -76.45807 | 37984 ft | 366 kts | 258° |
| 2026-05-08 17:43 | 40.01223 | -76.52037 | 37978 ft | 372 kts | 251° |
| 2026-05-08 17:44 | 39.98651 | -76.57989 | 37984 ft | 377 kts | 246° |
| 2026-05-08 17:44 | 39.95948 | -76.63805 | 37988 ft | 377 kts | 246° |
| 2026-05-08 17:45 | 39.93226 | -76.69666 | 37994 ft | 377 kts | 246° |
| 2026-05-08 17:45 | 39.90499 | -76.75514 | 37998 ft | 377 kts | 246° |
| 2026-05-08 17:46 | 39.87777 | -76.81340 | 37998 ft | 378 kts | 246° |
| 2026-05-08 17:46 | 39.85049 | -76.87165 | 38001 ft | 378 kts | 246° |
| 2026-05-08 17:47 | 39.82311 | -76.93001 | 37986 ft | 376 kts | 246° |
| 2026-05-08 17:47 | 39.80035 | -76.97844 | 37992 ft | 376 kts | 246° |
| 2026-05-08 17:48 | 39.76854 | -77.04602 | 37988 ft | 376 kts | 246° |
| 2026-05-08 17:48 | 39.74119 | -77.10399 | 37992 ft | 374 kts | 246° |
| 2026-05-08 17:49 | 39.71410 | -77.16130 | 37990 ft | 373 kts | 246° |
| 2026-05-08 17:49 | 39.68697 | -77.21865 | 37989 ft | 374 kts | 246° |
| 2026-05-08 17:50 | 39.65972 | -77.27608 | 37990 ft | 373 kts | 246° |
| 2026-05-08 17:50 | 39.63252 | -77.33332 | 38010 ft | 373 kts | 246° |
| 2026-05-08 17:51 | 39.60518 | -77.39075 | 38014 ft | 373 kts | 246° |
| 2026-05-08 17:51 | 39.57795 | -77.44785 | 38012 ft | 372 kts | 246° |
| 2026-05-08 17:52 | 39.55090 | -77.50441 | 38018 ft | 369 kts | 246° |
| 2026-05-08 17:53 | 39.51017 | -77.58950 | 38012 ft | 371 kts | 246° |
| 2026-05-08 17:53 | 39.48298 | -77.64614 | 38008 ft | 368 kts | 246° |
| 2026-05-08 17:54 | 39.45604 | -77.70217 | 37990 ft | 368 kts | 246° |
| 2026-05-08 17:54 | 39.42883 | -77.75868 | 37994 ft | 369 kts | 246° |
| 2026-05-08 17:55 | 39.40155 | -77.81521 | 38007 ft | 370 kts | 246° |
| 2026-05-08 17:55 | 39.37592 | -77.87215 | 37987 ft | 361 kts | 250° |
| 2026-05-08 17:56 | 39.35334 | -77.92951 | 37988 ft | 361 kts | 250° |
| 2026-05-08 17:56 | 39.33036 | -77.98755 | 37994 ft | 361 kts | 250° |
| 2026-05-08 17:57 | 39.30745 | -78.04518 | 38005 ft | 361 kts | 250° |
| 2026-05-08 17:57 | 39.28461 | -78.10252 | 37993 ft | 361 kts | 250° |
| 2026-05-08 17:58 | 39.26153 | -78.16037 | 38004 ft | 361 kts | 250° |
| 2026-05-08 17:58 | 39.23867 | -78.21755 | 37991 ft | 361 kts | 250° |
| 2026-05-08 17:59 | 39.21557 | -78.27520 | 38007 ft | 361 kts | 250° |
| 2026-05-08 17:59 | 39.19273 | -78.33198 | 37999 ft | 353 kts | 250° |
| 2026-05-08 18:00 | 39.16996 | -78.38868 | 38000 ft | 356 kts | 250° |
| 2026-05-08 18:00 | 39.13583 | -78.47343 | 38003 ft | 354 kts | 250° |
| 2026-05-08 18:01 | 39.11312 | -78.52963 | 37999 ft | 355 kts | 250° |
| 2026-05-08 18:01 | 39.09020 | -78.58625 | 38001 ft | 355 kts | 250° |
| 2026-05-08 18:02 | 39.07118 | -78.63317 | 37997 ft | 356 kts | 250° |
| 2026-05-08 18:02 | 39.04429 | -78.69935 | 38010 ft | 355 kts | 250° |
| 2026-05-08 18:03 | 39.02150 | -78.75525 | 38020 ft | 352 kts | 250° |
| 2026-05-08 18:03 | 38.99886 | -78.81090 | 38014 ft | 353 kts | 250° |
| 2026-05-08 18:04 | 38.97616 | -78.86656 | 38017 ft | 352 kts | 250° |
| 2026-05-08 18:04 | 38.95333 | -78.92231 | 38016 ft | 353 kts | 250° |
| 2026-05-08 18:05 | 38.93024 | -78.97862 | 38022 ft | 354 kts | 250° |
| 2026-05-08 18:05 | 38.90732 | -79.03440 | 38015 ft | 354 kts | 250° |
| 2026-05-08 18:06 | 38.88438 | -79.09017 | 38020 ft | 354 kts | 251° |
| 2026-05-08 18:06 | 38.86527 | -79.13656 | 38031 ft | 350 kts | 250° |
| 2026-05-08 18:07 | 38.84476 | -79.19282 | 37991 ft | 345 kts | 256° |
| 2026-05-08 18:07 | 38.82871 | -79.26105 | 38028 ft | 341 kts | 262° |
| 2026-05-08 18:08 | 38.82000 | -79.31053 | 38036 ft | 342 kts | 262° |
| 2026-05-08 18:08 | 38.80935 | -79.37008 | 38031 ft | 342 kts | 262° |
| 2026-05-08 18:09 | 38.79862 | -79.42948 | 38027 ft | 344 kts | 262° |
| 2026-05-08 18:09 | 38.78783 | -79.48910 | 38044 ft | 345 kts | 262° |
| 2026-05-08 18:10 | 38.77706 | -79.54856 | 38040 ft | 340 kts | 262° |
| 2026-05-08 18:10 | 38.76627 | -79.60771 | 38059 ft | 341 kts | 262° |
| 2026-05-08 18:11 | 38.75540 | -79.66718 | 38046 ft | 342 kts | 262° |
| 2026-05-08 18:11 | 38.74459 | -79.72616 | 38041 ft | 343 kts | 262° |
| 2026-05-08 18:12 | 38.73366 | -79.78575 | 38047 ft | 344 kts | 262° |
| 2026-05-08 18:12 | 38.72283 | -79.84463 | 38041 ft | 342 kts | 261° |
| 2026-05-08 18:13 | 38.71187 | -79.90398 | 38049 ft | 342 kts | 261° |
| 2026-05-08 18:13 | 38.70088 | -79.96328 | 38048 ft | 342 kts | 261° |
| 2026-05-08 18:14 | 38.68986 | -80.02256 | 38053 ft | 343 kts | 261° |
| 2026-05-08 18:14 | 38.67882 | -80.08199 | 38055 ft | 343 kts | 261° |
| 2026-05-08 18:15 | 38.66768 | -80.14119 | 38067 ft | 342 kts | 261° |
| 2026-05-08 18:15 | 38.65663 | -80.19998 | 38062 ft | 340 kts | 261° |
| 2026-05-08 18:16 | 38.64551 | -80.25887 | 38060 ft | 341 kts | 261° |
| 2026-05-08 18:16 | 38.63439 | -80.31780 | 38047 ft | 341 kts | 261° |
| 2026-05-08 18:17 | 38.62324 | -80.37671 | 38050 ft | 340 kts | 261° |
| 2026-05-08 18:17 | 38.61207 | -80.43533 | 38044 ft | 339 kts | 261° |
| 2026-05-08 18:18 | 38.60095 | -80.49389 | 38046 ft | 340 kts | 261° |
| 2026-05-08 18:18 | 38.58969 | -80.55251 | 38045 ft | 339 kts | 261° |
| 2026-05-08 18:19 | 38.57855 | -80.61080 | 38046 ft | 340 kts | 261° |
| 2026-05-08 18:19 | 38.56728 | -80.66948 | 38033 ft | 340 kts | 261° |
| 2026-05-08 18:20 | 38.55597 | -80.72822 | 38041 ft | 340 kts | 260° |
| 2026-05-08 18:20 | 38.54462 | -80.78689 | 38037 ft | 340 kts | 261° |
| 2026-05-08 18:21 | 38.53325 | -80.84548 | 37996 ft | 339 kts | 260° |
| 2026-05-08 18:21 | 38.52196 | -80.90352 | 38036 ft | 335 kts | 261° |
| 2026-05-08 18:22 | 38.51075 | -80.96109 | 38032 ft | 337 kts | 260° |
| 2026-05-08 18:22 | 38.49941 | -81.01906 | 38038 ft | 336 kts | 260° |
| 2026-05-08 18:23 | 38.48804 | -81.07707 | 38036 ft | 336 kts | 260° |
| 2026-05-08 18:23 | 38.47666 | -81.13490 | 38034 ft | 336 kts | 260° |
| 2026-05-08 18:24 | 38.46525 | -81.19275 | 38036 ft | 336 kts | 260° |
| 2026-05-08 18:24 | 38.45389 | -81.25027 | 38032 ft | 336 kts | 260° |
| 2026-05-08 18:25 | 38.44240 | -81.30819 | 38036 ft | 335 kts | 260° |
| 2026-05-08 18:25 | 38.43092 | -81.36588 | 38034 ft | 336 kts | 260° |
| 2026-05-08 18:26 | 38.41941 | -81.42364 | 38036 ft | 335 kts | 260° |
| 2026-05-08 18:26 | 38.40797 | -81.48084 | 38035 ft | 335 kts | 260° |
| 2026-05-08 18:27 | 38.39829 | -81.52915 | 38034 ft | 335 kts | 260° |
| 2026-05-08 18:27 | 38.38482 | -81.59608 | 38033 ft | 335 kts | 259° |
| 2026-05-08 18:28 | 38.37320 | -81.65376 | 38036 ft | 335 kts | 259° |
| 2026-05-08 18:28 | 38.36164 | -81.71092 | 38016 ft | 335 kts | 259° |
| 2026-05-08 18:29 | 38.34985 | -81.76756 | 38036 ft | 328 kts | 258° |
| 2026-05-08 18:29 | 38.33480 | -81.82315 | 38032 ft | 333 kts | 256° |
| 2026-05-08 18:30 | 38.31929 | -81.87863 | 38031 ft | 332 kts | 256° |
| 2026-05-08 18:30 | 38.30378 | -81.93412 | 38032 ft | 332 kts | 256° |
| 2026-05-08 18:31 | 38.28825 | -81.98948 | 38032 ft | 332 kts | 256° |
| 2026-05-08 18:31 | 38.27280 | -82.04443 | 38033 ft | 331 kts | 256° |
| 2026-05-08 18:32 | 38.25724 | -82.09964 | 38024 ft | 331 kts | 256° |
| 2026-05-08 18:32 | 38.24170 | -82.15464 | 38015 ft | 330 kts | 256° |
| 2026-05-08 18:33 | 38.22617 | -82.20950 | 38013 ft | 329 kts | 256° |
| 2026-05-08 18:33 | 38.21074 | -82.26393 | 38013 ft | 328 kts | 256° |
| 2026-05-08 18:34 | 38.19522 | -82.31856 | 38011 ft | 328 kts | 256° |
| 2026-05-08 18:34 | 38.17968 | -82.37309 | 38019 ft | 328 kts | 256° |
| 2026-05-08 18:35 | 38.16400 | -82.42810 | 38030 ft | 333 kts | 255° |
| 2026-05-08 18:35 | 38.14821 | -82.48325 | 38028 ft | 331 kts | 255° |
| 2026-05-08 18:36 | 38.13242 | -82.53833 | 38030 ft | 332 kts | 255° |
| 2026-05-08 18:36 | 38.11661 | -82.59337 | 38028 ft | 331 kts | 255° |
| 2026-05-08 18:37 | 38.10079 | -82.64833 | 38026 ft | 331 kts | 255° |
| 2026-05-08 18:37 | 38.08511 | -82.70271 | 38017 ft | 330 kts | 255° |
| 2026-05-08 18:38 | 38.06932 | -82.75736 | 38012 ft | 329 kts | 255° |
| 2026-05-08 18:38 | 38.05352 | -82.81194 | 38016 ft | 328 kts | 255° |
| 2026-05-08 18:39 | 38.03774 | -82.86634 | 38012 ft | 328 kts | 255° |
| 2026-05-08 18:39 | 38.02201 | -82.92047 | 38034 ft | 331 kts | 255° |
| 2026-05-08 18:40 | 38.00602 | -82.97538 | 38036 ft | 331 kts | 255° |
| 2026-05-08 18:40 | 37.99001 | -83.03017 | 38041 ft | 332 kts | 255° |
| 2026-05-08 18:41 | 37.97401 | -83.08487 | 38038 ft | 330 kts | 255° |
| 2026-05-08 18:41 | 37.95804 | -83.13937 | 38038 ft | 330 kts | 255° |
| 2026-05-08 18:42 | 37.94201 | -83.19392 | 38043 ft | 329 kts | 255° |
| 2026-05-08 18:42 | 37.92609 | -83.24803 | 38043 ft | 329 kts | 255° |
| 2026-05-08 18:43 | 37.91008 | -83.30236 | 38045 ft | 329 kts | 255° |
| 2026-05-08 18:43 | 37.89400 | -83.35678 | 38044 ft | 329 kts | 255° |
| 2026-05-08 18:44 | 37.87803 | -83.41072 | 38042 ft | 329 kts | 255° |
| 2026-05-08 18:44 | 37.86194 | -83.46499 | 38038 ft | 330 kts | 255° |
| 2026-05-08 18:45 | 37.84578 | -83.51936 | 38043 ft | 330 kts | 255° |
| 2026-05-08 18:45 | 37.82963 | -83.57362 | 38048 ft | 331 kts | 254° |
| 2026-05-08 18:46 | 37.81342 | -83.62796 | 38040 ft | 331 kts | 254° |
| 2026-05-08 18:46 | 37.79714 | -83.68234 | 38041 ft | 329 kts | 254° |
| 2026-05-08 18:47 | 37.78103 | -83.73615 | 38050 ft | 329 kts | 254° |
| 2026-05-08 18:47 | 37.76464 | -83.79078 | 38040 ft | 331 kts | 254° |
| 2026-05-08 18:48 | 37.74844 | -83.84462 | 38037 ft | 330 kts | 254° |
| 2026-05-08 18:48 | 37.73208 | -83.89893 | 38035 ft | 330 kts | 254° |
| 2026-05-08 18:49 | 37.71568 | -83.95324 | 38032 ft | 329 kts | 253° |
| 2026-05-08 18:49 | 37.69933 | -84.00730 | 38037 ft | 329 kts | 253° |
| 2026-05-08 18:50 | 37.68296 | -84.06128 | 38038 ft | 329 kts | 253° |
| 2026-05-08 18:50 | 37.66935 | -84.10613 | 38038 ft | 330 kts | 253° |
| 2026-05-08 18:51 | 37.65020 | -84.16913 | 38039 ft | 329 kts | 253° |
| 2026-05-08 18:51 | 37.63372 | -84.22299 | 38041 ft | 330 kts | 253° |
| 2026-05-08 18:52 | 37.61712 | -84.27712 | 38044 ft | 330 kts | 253° |
| 2026-05-08 18:52 | 37.60331 | -84.32212 | 38046 ft | 330 kts | 253° |
| 2026-05-08 18:53 | 37.58404 | -84.38476 | 38039 ft | 330 kts | 253° |
| 2026-05-08 18:53 | 37.56742 | -84.43867 | 38031 ft | 330 kts | 253° |
| 2026-05-08 18:54 | 37.55355 | -84.48359 | 38034 ft | 330 kts | 253° |
| 2026-05-08 18:54 | 37.53688 | -84.53750 | 38032 ft | 330 kts | 253° |
| 2026-05-08 18:55 | 37.51173 | -84.61866 | 38030 ft | 331 kts | 253° |
| 2026-05-08 18:56 | 37.49504 | -84.67237 | 38021 ft | 331 kts | 253° |
| 2026-05-08 18:56 | 37.47823 | -84.72639 | 38031 ft | 331 kts | 253° |
| 2026-05-08 18:57 | 37.46150 | -84.78043 | 38037 ft | 331 kts | 253° |
| 2026-05-08 18:57 | 37.44475 | -84.83453 | 38034 ft | 331 kts | 253° |
| 2026-05-08 18:58 | 37.42800 | -84.88846 | 38034 ft | 331 kts | 253° |
| 2026-05-08 18:58 | 37.41121 | -84.94244 | 38038 ft | 331 kts | 253° |
| 2026-05-08 18:59 | 37.39441 | -84.99632 | 38055 ft | 331 kts | 253° |
| 2026-05-08 18:59 | 37.37763 | -85.04994 | 38073 ft | 331 kts | 252° |
| 2026-05-08 19:00 | 37.36063 | -85.10395 | 38054 ft | 328 kts | 252° |
| 2026-05-08 19:00 | 37.34394 | -85.15686 | 38060 ft | 328 kts | 252° |
| 2026-05-08 19:01 | 37.32708 | -85.21028 | 38065 ft | 328 kts | 252° |
| 2026-05-08 19:01 | 37.31028 | -85.26339 | 38063 ft | 328 kts | 252° |
| 2026-05-08 19:02 | 37.29341 | -85.31663 | 38023 ft | 328 kts | 252° |
| 2026-05-08 19:02 | 37.27649 | -85.36993 | 38022 ft | 328 kts | 252° |
| 2026-05-08 19:03 | 37.25960 | -85.42301 | 38022 ft | 328 kts | 252° |
| 2026-05-08 19:03 | 37.24263 | -85.47632 | 38025 ft | 328 kts | 252° |
| 2026-05-08 19:04 | 37.22571 | -85.52930 | 38027 ft | 328 kts | 252° |
| 2026-05-08 19:04 | 37.20869 | -85.58248 | 38022 ft | 328 kts | 252° |
| 2026-05-08 19:05 | 37.19174 | -85.63536 | 38025 ft | 328 kts | 252° |
| 2026-05-08 19:05 | 37.17468 | -85.68850 | 38022 ft | 328 kts | 252° |
| 2026-05-08 19:06 | 37.15761 | -85.74160 | 37982 ft | 328 kts | 252° |
| 2026-05-08 19:06 | 37.14059 | -85.79437 | 38024 ft | 324 kts | 252° |
| 2026-05-08 19:07 | 37.12365 | -85.84687 | 38019 ft | 325 kts | 252° |
| 2026-05-08 19:07 | 37.10667 | -85.89940 | 38016 ft | 325 kts | 252° |
| 2026-05-08 19:08 | 37.08965 | -85.95192 | 38018 ft | 325 kts | 252° |
| 2026-05-08 19:08 | 37.07261 | -86.00443 | 38023 ft | 325 kts | 251° |
| 2026-05-08 19:09 | 37.05555 | -86.05692 | 38020 ft | 325 kts | 251° |
| 2026-05-08 19:09 | 37.03856 | -86.10906 | 38022 ft | 326 kts | 251° |
| 2026-05-08 19:10 | 37.02142 | -86.16158 | 38024 ft | 326 kts | 251° |
| 2026-05-08 19:10 | 37.00428 | -86.21405 | 38020 ft | 326 kts | 251° |
| 2026-05-08 19:11 | 36.98707 | -86.26657 | 38014 ft | 326 kts | 251° |
| 2026-05-08 19:11 | 36.96984 | -86.31907 | 38016 ft | 326 kts | 251° |
| 2026-05-08 19:12 | 36.95259 | -86.37159 | 38018 ft | 326 kts | 251° |
| 2026-05-08 19:12 | 36.93542 | -86.42375 | 37974 ft | 325 kts | 251° |
| 2026-05-08 19:13 | 36.91795 | -86.47525 | 38016 ft | 321 kts | 250° |
| 2026-05-08 19:13 | 36.89939 | -86.52630 | 38018 ft | 323 kts | 250° |
| 2026-05-08 19:14 | 36.88091 | -86.57732 | 38028 ft | 323 kts | 250° |
| 2026-05-08 19:14 | 36.86234 | -86.62887 | 38008 ft | 326 kts | 249° |
| 2026-05-08 19:15 | 36.84378 | -86.68032 | 38025 ft | 324 kts | 249° |
| 2026-05-08 19:15 | 36.82541 | -86.73119 | 38013 ft | 323 kts | 249° |
| 2026-05-08 19:16 | 36.80691 | -86.78235 | 38005 ft | 322 kts | 249° |
| 2026-05-08 19:16 | 36.78843 | -86.83337 | 38007 ft | 322 kts | 249° |
| 2026-05-08 19:17 | 36.76996 | -86.88425 | 37998 ft | 322 kts | 249° |
| 2026-05-08 19:17 | 36.75160 | -86.93478 | 37995 ft | 322 kts | 249° |
| 2026-05-08 19:18 | 36.73304 | -86.98580 | 38021 ft | 326 kts | 249° |
| 2026-05-08 19:18 | 36.71420 | -87.03745 | 38017 ft | 326 kts | 249° |
| 2026-05-08 19:19 | 36.69560 | -87.08830 | 38021 ft | 323 kts | 249° |
| 2026-05-08 19:19 | 36.67691 | -87.13939 | 38012 ft | 324 kts | 249° |
| 2026-05-08 19:20 | 36.65822 | -87.19039 | 38008 ft | 323 kts | 249° |
| 2026-05-08 19:20 | 36.63950 | -87.24139 | 38008 ft | 323 kts | 249° |
| 2026-05-08 19:21 | 36.62088 | -87.29204 | 38008 ft | 324 kts | 249° |
| 2026-05-08 19:21 | 36.60208 | -87.34311 | 38001 ft | 324 kts | 249° |
| 2026-05-08 19:22 | 36.58327 | -87.39412 | 38004 ft | 324 kts | 249° |
| 2026-05-08 19:22 | 36.56454 | -87.44485 | 38013 ft | 324 kts | 249° |
| 2026-05-08 19:23 | 36.54565 | -87.49593 | 38024 ft | 325 kts | 249° |
| 2026-05-08 19:23 | 36.52672 | -87.54700 | 38027 ft | 325 kts | 249° |
| 2026-05-08 19:24 | 36.50776 | -87.59812 | 38033 ft | 325 kts | 249° |
| 2026-05-08 19:24 | 36.48875 | -87.64926 | 38036 ft | 326 kts | 249° |
| 2026-05-08 19:25 | 36.46988 | -87.69995 | 38034 ft | 323 kts | 248° |
| 2026-05-08 19:25 | 36.45097 | -87.75066 | 38026 ft | 325 kts | 248° |
| 2026-05-08 19:26 | 36.43192 | -87.80168 | 38022 ft | 325 kts | 248° |
| 2026-05-08 19:26 | 36.41287 | -87.85256 | 38026 ft | 325 kts | 248° |
| 2026-05-08 19:27 | 36.39380 | -87.90346 | 38020 ft | 324 kts | 248° |
| 2026-05-08 19:27 | 36.37475 | -87.95424 | 38019 ft | 324 kts | 248° |
| 2026-05-08 19:28 | 36.35581 | -88.00463 | 38016 ft | 324 kts | 248° |
| 2026-05-08 19:28 | 36.33674 | -88.05525 | 38017 ft | 324 kts | 248° |
| 2026-05-08 19:29 | 36.31765 | -88.10589 | 38005 ft | 324 kts | 248° |
| 2026-05-08 19:29 | 36.29852 | -88.15656 | 37986 ft | 324 kts | 248° |
| 2026-05-08 19:30 | 36.27936 | -88.20717 | 37981 ft | 324 kts | 248° |
| 2026-05-08 19:30 | 36.26017 | -88.25782 | 37982 ft | 325 kts | 248° |
| 2026-05-08 19:31 | 36.24104 | -88.30821 | 37980 ft | 325 kts | 248° |
| 2026-05-08 19:31 | 36.22182 | -88.35878 | 37990 ft | 324 kts | 248° |
| 2026-05-08 19:32 | 36.20254 | -88.40941 | 37994 ft | 325 kts | 248° |
| 2026-05-08 19:32 | 36.18322 | -88.46006 | 37996 ft | 325 kts | 248° |
| 2026-05-08 19:33 | 36.16398 | -88.51045 | 37986 ft | 326 kts | 247° |
| 2026-05-08 19:33 | 36.14457 | -88.56119 | 37990 ft | 326 kts | 247° |
| 2026-05-08 19:34 | 36.12503 | -88.61203 | 37996 ft | 327 kts | 247° |
| 2026-05-08 19:34 | 36.10548 | -88.66285 | 37998 ft | 327 kts | 247° |
| 2026-05-08 19:35 | 36.08601 | -88.71350 | 38002 ft | 328 kts | 247° |
| 2026-05-08 19:35 | 36.06642 | -88.76443 | 38007 ft | 328 kts | 247° |
| 2026-05-08 19:36 | 36.04681 | -88.81527 | 38005 ft | 328 kts | 247° |
| 2026-05-08 19:36 | 36.02711 | -88.86627 | 38004 ft | 328 kts | 247° |
| 2026-05-08 19:37 | 36.00742 | -88.91711 | 37995 ft | 328 kts | 247° |
| 2026-05-08 19:37 | 35.98770 | -88.96798 | 37995 ft | 328 kts | 247° |
| 2026-05-08 19:38 | 35.96808 | -89.01849 | 37997 ft | 328 kts | 247° |
| 2026-05-08 19:38 | 35.94828 | -89.06939 | 38001 ft | 329 kts | 247° |
| 2026-05-08 19:39 | 35.92844 | -89.12030 | 38001 ft | 329 kts | 247° |
| 2026-05-08 19:39 | 35.90870 | -89.17090 | 38002 ft | 329 kts | 247° |
| 2026-05-08 19:40 | 35.88881 | -89.22178 | 38001 ft | 329 kts | 246° |
| 2026-05-08 19:40 | 35.87223 | -89.26415 | 37991 ft | 330 kts | 246° |
| 2026-05-08 19:41 | 35.85222 | -89.31519 | 37989 ft | 330 kts | 246° |
| 2026-05-08 19:41 | 35.82889 | -89.37460 | 37996 ft | 331 kts | 246° |
| 2026-05-08 19:42 | 35.81215 | -89.41719 | 37999 ft | 332 kts | 246° |
| 2026-05-08 19:42 | 35.79198 | -89.46839 | 38001 ft | 333 kts | 246° |
| 2026-05-08 19:43 | 35.77173 | -89.51974 | 38008 ft | 333 kts | 246° |
| 2026-05-08 19:43 | 35.75145 | -89.57106 | 37945 ft | 333 kts | 246° |
| 2026-05-08 19:44 | 35.73135 | -89.62184 | 37997 ft | 328 kts | 246° |
| 2026-05-08 19:44 | 35.71142 | -89.67213 | 38002 ft | 329 kts | 246° |
| 2026-05-08 19:45 | 35.69133 | -89.72274 | 37992 ft | 329 kts | 246° |
| 2026-05-08 19:45 | 35.67121 | -89.77336 | 37994 ft | 329 kts | 246° |
| 2026-05-08 19:46 | 35.65108 | -89.82391 | 37989 ft | 329 kts | 246° |
| 2026-05-08 19:46 | 35.62082 | -89.89975 | 37984 ft | 329 kts | 246° |
| 2026-05-08 19:47 | 35.60077 | -89.94990 | 37981 ft | 329 kts | 246° |
| 2026-05-08 19:47 | 35.58057 | -90.00036 | 37979 ft | 329 kts | 246° |
| 2026-05-08 19:48 | 35.56030 | -90.05092 | 37974 ft | 329 kts | 246° |
| 2026-05-08 19:48 | 35.54002 | -90.10142 | 37975 ft | 330 kts | 246° |
| 2026-05-08 19:49 | 35.51982 | -90.15164 | 37977 ft | 330 kts | 246° |
| 2026-05-08 19:49 | 35.49941 | -90.20231 | 37924 ft | 331 kts | 246° |
| 2026-05-08 19:50 | 35.47902 | -90.25284 | 37984 ft | 330 kts | 246° |
| 2026-05-08 19:50 | 35.45872 | -90.30307 | 37986 ft | 330 kts | 246° |
| 2026-05-08 19:51 | 35.43825 | -90.35366 | 37992 ft | 331 kts | 245° |
| 2026-05-08 19:51 | 35.41814 | -90.40328 | 37983 ft | 332 kts | 245° |
| 2026-05-08 19:52 | 35.39766 | -90.45372 | 37982 ft | 332 kts | 245° |
| 2026-05-08 19:52 | 35.37705 | -90.50444 | 37989 ft | 332 kts | 245° |
| 2026-05-08 19:53 | 35.35639 | -90.55517 | 37990 ft | 333 kts | 245° |
| 2026-05-08 19:53 | 35.33569 | -90.60592 | 37999 ft | 333 kts | 245° |
| 2026-05-08 19:54 | 35.31496 | -90.65667 | 38006 ft | 333 kts | 245° |
| 2026-05-08 19:54 | 35.29415 | -90.70754 | 38005 ft | 333 kts | 245° |
| 2026-05-08 19:55 | 35.27351 | -90.75794 | 38003 ft | 333 kts | 245° |
| 2026-05-08 19:55 | 35.25263 | -90.80884 | 37995 ft | 334 kts | 245° |
| 2026-05-08 19:56 | 35.23176 | -90.85963 | 37987 ft | 333 kts | 245° |
| 2026-05-08 19:56 | 35.21094 | -90.91019 | 37996 ft | 333 kts | 245° |
| 2026-05-08 19:57 | 35.19007 | -90.96081 | 38006 ft | 333 kts | 245° |
| 2026-05-08 19:57 | 35.16934 | -91.01104 | 38006 ft | 333 kts | 245° |
| 2026-05-08 19:58 | 35.14844 | -91.06159 | 37997 ft | 333 kts | 245° |
| 2026-05-08 19:58 | 35.12753 | -91.11209 | 37995 ft | 333 kts | 245° |
| 2026-05-08 19:59 | 35.10659 | -91.16260 | 37979 ft | 334 kts | 245° |
| 2026-05-08 19:59 | 35.08556 | -91.21323 | 37980 ft | 334 kts | 245° |
| 2026-05-08 20:00 | 35.06460 | -91.26361 | 37999 ft | 335 kts | 245° |
| 2026-05-08 20:00 | 35.04342 | -91.31444 | 38003 ft | 336 kts | 245° |
| 2026-05-08 20:01 | 35.02223 | -91.36523 | 37991 ft | 336 kts | 245° |
| 2026-05-08 20:01 | 35.00101 | -91.41601 | 37993 ft | 336 kts | 245° |
| 2026-05-08 20:02 | 34.97978 | -91.46674 | 37948 ft | 335 kts | 244° |
| 2026-05-08 20:02 | 34.95869 | -91.51708 | 37994 ft | 335 kts | 244° |
| 2026-05-08 20:03 | 34.93742 | -91.56774 | 37973 ft | 336 kts | 244° |
| 2026-05-08 20:03 | 34.91606 | -91.61856 | 37975 ft | 337 kts | 244° |
| 2026-05-08 20:04 | 34.89479 | -91.66908 | 37975 ft | 337 kts | 244° |
| 2026-05-08 20:04 | 34.87332 | -91.72000 | 37977 ft | 338 kts | 244° |
| 2026-05-08 20:05 | 34.85179 | -91.77099 | 37980 ft | 338 kts | 244° |
| 2026-05-08 20:05 | 34.83019 | -91.82204 | 37981 ft | 339 kts | 244° |
| 2026-05-08 20:06 | 34.80874 | -91.87268 | 37983 ft | 339 kts | 244° |
| 2026-05-08 20:06 | 34.78710 | -91.92370 | 37963 ft | 340 kts | 244° |
| 2026-05-08 20:07 | 34.76539 | -91.97480 | 37961 ft | 340 kts | 244° |
| 2026-05-08 20:07 | 34.74363 | -92.02595 | 37967 ft | 340 kts | 244° |
| 2026-05-08 20:08 | 34.72183 | -92.07713 | 37970 ft | 341 kts | 244° |
| 2026-05-08 20:08 | 34.70019 | -92.12789 | 37970 ft | 340 kts | 244° |
| 2026-05-08 20:09 | 34.67908 | -92.17919 | 37970 ft | 339 kts | 248° |
| 2026-05-08 20:09 | 34.66327 | -92.23316 | 37968 ft | 339 kts | 251° |
| 2026-05-08 20:10 | 34.64853 | -92.28767 | 37969 ft | 339 kts | 251° |
| 2026-05-08 20:10 | 34.63381 | -92.34174 | 37951 ft | 339 kts | 251° |
| 2026-05-08 20:11 | 34.61894 | -92.39614 | 37949 ft | 339 kts | 251° |
| 2026-05-08 20:11 | 34.60403 | -92.45059 | 37949 ft | 340 kts | 251° |
| 2026-05-08 20:12 | 34.58908 | -92.50508 | 37952 ft | 340 kts | 251° |
| 2026-05-08 20:12 | 34.57409 | -92.55961 | 37955 ft | 341 kts | 251° |
| 2026-05-08 20:13 | 34.55914 | -92.61386 | 37959 ft | 341 kts | 251° |
| 2026-05-08 20:13 | 34.54406 | -92.66851 | 37963 ft | 341 kts | 251° |
| 2026-05-08 20:14 | 34.52892 | -92.72326 | 37949 ft | 342 kts | 251° |
| 2026-05-08 20:14 | 34.51375 | -92.77801 | 37961 ft | 342 kts | 251° |
| 2026-05-08 20:15 | 34.49864 | -92.83242 | 37961 ft | 343 kts | 251° |
| 2026-05-08 20:15 | 34.48339 | -92.88722 | 37966 ft | 343 kts | 250° |
| 2026-05-08 20:16 | 34.46808 | -92.94217 | 37963 ft | 344 kts | 250° |
| 2026-05-08 20:16 | 34.45275 | -92.99702 | 37968 ft | 344 kts | 250° |
| 2026-05-08 20:17 | 34.43738 | -93.05197 | 37913 ft | 344 kts | 250° |
| 2026-05-08 20:17 | 34.42198 | -93.10690 | 37960 ft | 344 kts | 250° |
| 2026-05-08 20:18 | 34.40659 | -93.16167 | 37961 ft | 343 kts | 250° |
| 2026-05-08 20:18 | 34.39117 | -93.21645 | 37956 ft | 343 kts | 250° |
| 2026-05-08 20:19 | 34.37586 | -93.27075 | 37961 ft | 344 kts | 250° |
| 2026-05-08 20:19 | 34.36034 | -93.32565 | 37959 ft | 343 kts | 250° |
| 2026-05-08 20:20 | 34.34486 | -93.38031 | 37949 ft | 343 kts | 250° |
| 2026-05-08 20:20 | 34.32936 | -93.43499 | 37947 ft | 343 kts | 250° |
| 2026-05-08 20:21 | 34.31383 | -93.48960 | 37948 ft | 343 kts | 250° |
| 2026-05-08 20:21 | 34.29837 | -93.54387 | 37942 ft | 343 kts | 250° |
| 2026-05-08 20:22 | 34.28282 | -93.59839 | 37941 ft | 343 kts | 250° |
| 2026-05-08 20:22 | 34.26988 | -93.64364 | 37943 ft | 343 kts | 250° |
| 2026-05-08 20:23 | 34.25163 | -93.70737 | 37947 ft | 343 kts | 250° |
| 2026-05-08 20:23 | 34.23597 | -93.76194 | 37949 ft | 343 kts | 250° |
| 2026-05-08 20:24 | 34.22040 | -93.81611 | 37932 ft | 344 kts | 250° |
| 2026-05-08 20:24 | 34.20465 | -93.87080 | 37927 ft | 344 kts | 250° |
| 2026-05-08 20:25 | 34.18874 | -93.92547 | 37935 ft | 345 kts | 249° |
| 2026-05-08 20:25 | 34.17199 | -93.97990 | 37939 ft | 346 kts | 249° |
| 2026-05-08 20:26 | 34.15526 | -94.03414 | 37940 ft | 347 kts | 249° |
| 2026-05-08 20:26 | 34.13851 | -94.08873 | 37948 ft | 346 kts | 249° |
| 2026-05-08 20:27 | 34.12173 | -94.14331 | 37948 ft | 347 kts | 249° |
| 2026-05-08 20:27 | 34.10493 | -94.19790 | 37939 ft | 345 kts | 249° |
| 2026-05-08 20:28 | 34.09097 | -94.24320 | 37927 ft | 347 kts | 249° |
| 2026-05-08 20:28 | 34.07410 | -94.29782 | 37926 ft | 347 kts | 249° |
| 2026-05-08 20:29 | 34.05722 | -94.35240 | 37924 ft | 347 kts | 249° |
| 2026-05-08 20:29 | 34.04032 | -94.40693 | 37925 ft | 347 kts | 249° |
| 2026-05-08 20:30 | 34.02340 | -94.46142 | 37925 ft | 347 kts | 249° |
| 2026-05-08 20:30 | 34.00658 | -94.51549 | 37926 ft | 347 kts | 249° |
| 2026-05-08 20:31 | 33.98959 | -94.57001 | 37927 ft | 347 kts | 249° |
| 2026-05-08 20:31 | 33.97255 | -94.62456 | 37915 ft | 348 kts | 249° |
| 2026-05-08 20:32 | 33.95547 | -94.67919 | 37920 ft | 348 kts | 249° |
| 2026-05-08 20:32 | 33.93833 | -94.73389 | 37924 ft | 349 kts | 249° |
| 2026-05-08 20:33 | 33.92125 | -94.78829 | 37928 ft | 349 kts | 249° |
| 2026-05-08 20:33 | 33.90402 | -94.84308 | 37932 ft | 350 kts | 249° |
| 2026-05-08 20:34 | 33.88676 | -94.89788 | 37936 ft | 350 kts | 249° |
| 2026-05-08 20:35 | 33.86074 | -94.98027 | 37932 ft | 351 kts | 249° |
| 2026-05-08 20:35 | 33.84336 | -95.03523 | 37934 ft | 351 kts | 249° |
| 2026-05-08 20:36 | 33.82595 | -95.09012 | 37941 ft | 351 kts | 249° |
| 2026-05-08 20:36 | 33.80862 | -95.14472 | 37942 ft | 351 kts | 249° |
| 2026-05-08 20:37 | 33.79119 | -95.19944 | 37309 ft | 352 kts | 249° |
| 2026-05-08 20:37 | 33.78228 | -95.22733 | 36198 ft | 363 kts | 249° |
| 2026-05-08 20:37 | 33.77307 | -95.25618 | 35029 ft | 374 kts | 248° |
| 2026-05-08 20:37 | 33.76363 | -95.28571 | 34017 ft | 382 kts | 248° |
| 2026-05-08 20:38 | 33.75403 | -95.31569 | 32926 ft | 387 kts | 248° |
| 2026-05-08 20:38 | 33.74443 | -95.34564 | 31818 ft | 391 kts | 249° |
| 2026-05-08 20:38 | 33.73454 | -95.37633 | 30402 ft | 396 kts | 249° |
| 2026-05-08 20:38 | 33.72452 | -95.40736 | 29062 ft | 398 kts | 249° |
| 2026-05-08 20:39 | 33.71460 | -95.43806 | 28087 ft | 390 kts | 249° |
| 2026-05-08 20:39 | 33.70493 | -95.46797 | 27431 ft | 377 kts | 249° |
| 2026-05-08 20:39 | 33.69559 | -95.49681 | 27091 ft | 367 kts | 249° |
| 2026-05-08 20:39 | 33.68622 | -95.52575 | 26835 ft | 374 kts | 249° |
| 2026-05-08 20:40 | 33.67679 | -95.55485 | 26587 ft | 372 kts | 249° |
| 2026-05-08 20:40 | 33.66742 | -95.58370 | 26342 ft | 370 kts | 249° |
| 2026-05-08 20:40 | 33.65807 | -95.61247 | 26074 ft | 370 kts | 249° |
| 2026-05-08 20:40 | 33.64869 | -95.64128 | 25587 ft | 370 kts | 250° |
| 2026-05-08 20:41 | 33.63935 | -95.66994 | 25085 ft | 366 kts | 250° |
| 2026-05-08 20:41 | 33.63023 | -95.69789 | 24597 ft | 361 kts | 250° |
| 2026-05-08 20:41 | 33.62112 | -95.72577 | 24100 ft | 357 kts | 250° |
| 2026-05-08 20:41 | 33.61210 | -95.75339 | 23583 ft | 354 kts | 250° |
| 2026-05-08 20:42 | 33.60319 | -95.78068 | 23081 ft | 348 kts | 250° |
| 2026-05-08 20:42 | 33.59445 | -95.80747 | 22601 ft | 342 kts | 250° |
| 2026-05-08 20:42 | 33.58584 | -95.83381 | 22131 ft | 336 kts | 250° |
| 2026-05-08 20:42 | 33.57734 | -95.85980 | 21661 ft | 331 kts | 250° |
| 2026-05-08 20:43 | 33.56897 | -95.88537 | 21206 ft | 327 kts | 250° |
| 2026-05-08 20:43 | 33.56041 | -95.91159 | 20715 ft | 351 kts | 250° |
| 2026-05-08 20:43 | 33.55139 | -95.93918 | 20213 ft | 366 kts | 250° |
| 2026-05-08 20:43 | 33.54200 | -95.96779 | 19688 ft | 370 kts | 250° |
| 2026-05-08 20:44 | 33.53255 | -95.99645 | 19168 ft | 368 kts | 250° |
| 2026-05-08 20:44 | 33.52318 | -96.02486 | 18623 ft | 364 kts | 250° |
| 2026-05-08 20:44 | 33.51393 | -96.05290 | 18115 ft | 358 kts | 250° |
| 2026-05-08 20:44 | 33.50488 | -96.08034 | 17587 ft | 351 kts | 250° |
| 2026-05-08 20:45 | 33.49600 | -96.10723 | 17077 ft | 343 kts | 250° |
| 2026-05-08 20:45 | 33.48733 | -96.13350 | 16671 ft | 335 kts | 250° |
| 2026-05-08 20:45 | 33.47893 | -96.15893 | 16194 ft | 329 kts | 250° |
| 2026-05-08 20:45 | 33.47057 | -96.18423 | 15728 ft | 324 kts | 250° |
| 2026-05-08 20:46 | 33.46231 | -96.20920 | 15257 ft | 320 kts | 250° |
| 2026-05-08 20:46 | 33.45418 | -96.23356 | 15014 ft | 309 kts | 249° |
| 2026-05-08 20:46 | 33.44444 | -96.25636 | 14666 ft | 305 kts | 242° |
| 2026-05-08 20:46 | 33.43243 | -96.27692 | 14429 ft | 301 kts | 235° |
| 2026-05-08 20:47 | 33.41856 | -96.29608 | 14169 ft | 305 kts | 233° |
| 2026-05-08 20:47 | 33.40453 | -96.31531 | 13770 ft | 307 kts | 233° |
| 2026-05-08 20:47 | 33.39060 | -96.33451 | 13336 ft | 304 kts | 233° |
| 2026-05-08 20:47 | 33.37685 | -96.35348 | 12927 ft | 300 kts | 233° |
| 2026-05-08 20:48 | 33.36327 | -96.37220 | 12526 ft | 296 kts | 233° |
| 2026-05-08 20:48 | 33.35007 | -96.39039 | 12173 ft | 290 kts | 233° |
| 2026-05-08 20:48 | 33.33717 | -96.40830 | 11988 ft | 279 kts | 235° |
| 2026-05-08 20:48 | 33.32669 | -96.42736 | 11701 ft | 269 kts | 245° |
| 2026-05-08 20:49 | 33.31939 | -96.44773 | 11553 ft | 268 kts | 253° |
| 2026-05-08 20:49 | 33.31362 | -96.46907 | 11348 ft | 271 kts | 253° |
| 2026-05-08 20:49 | 33.30773 | -96.49039 | 11071 ft | 268 kts | 252° |
| 2026-05-08 20:49 | 33.30189 | -96.51117 | 10843 ft | 261 kts | 252° |
| 2026-05-08 20:50 | 33.29610 | -96.53169 | 10456 ft | 259 kts | 252° |
| 2026-05-08 20:50 | 33.29046 | -96.55193 | 10182 ft | 254 kts | 254° |
| 2026-05-08 20:50 | 33.28686 | -96.57245 | 9902 ft | 253 kts | 263° |
| 2026-05-08 20:50 | 33.28576 | -96.59354 | 9579 ft | 254 kts | 266° |
| 2026-05-08 20:51 | 33.28490 | -96.61454 | 9273 ft | 252 kts | 266° |
| 2026-05-08 20:51 | 33.28396 | -96.63554 | 8976 ft | 254 kts | 266° |
| 2026-05-08 20:51 | 33.28299 | -96.65643 | 8563 ft | 256 kts | 266° |
| 2026-05-08 20:51 | 33.28199 | -96.67777 | 8065 ft | 256 kts | 266° |
| 2026-05-08 20:52 | 33.28101 | -96.69888 | 7577 ft | 253 kts | 266° |
| 2026-05-08 20:52 | 33.28004 | -96.71974 | 7096 ft | 250 kts | 266° |
| 2026-05-08 20:52 | 33.27906 | -96.74045 | 6626 ft | 249 kts | 267° |
| 2026-05-08 20:52 | 33.27807 | -96.76105 | 6138 ft | 247 kts | 267° |
| 2026-05-08 20:53 | 33.27710 | -96.78147 | 5650 ft | 245 kts | 267° |
| 2026-05-08 20:53 | 33.27614 | -96.80170 | 5204 ft | 241 kts | 266° |
| 2026-05-08 20:53 | 33.27521 | -96.82129 | 5006 ft | 233 kts | 267° |
| 2026-05-08 20:53 | 33.27428 | -96.84083 | 5012 ft | 236 kts | 267° |
| 2026-05-08 20:54 | 33.27361 | -96.86060 | 5122 ft | 238 kts | 268° |
| 2026-05-08 20:54 | 33.27333 | -96.88005 | 5236 ft | 236 kts | 269° |
| 2026-05-08 20:54 | 33.27311 | -96.89990 | 5043 ft | 236 kts | 269° |
| 2026-05-08 20:54 | 33.27290 | -96.91885 | 4919 ft | 225 kts | 269° |
| 2026-05-08 20:55 | 33.27268 | -96.93715 | 4718 ft | 217 kts | 269° |
| 2026-05-08 20:55 | 33.27244 | -96.95513 | 4430 ft | 215 kts | 269° |
| 2026-05-08 20:55 | 33.27218 | -96.97299 | 4123 ft | 214 kts | 264° |
| 2026-05-08 20:55 | 33.26860 | -96.99025 | 3752 ft | 218 kts | 248° |
| 2026-05-08 20:56 | 33.26247 | -97.00682 | 3452 ft | 217 kts | 243° |
| 2026-05-08 20:56 | 33.25620 | -97.02337 | 3187 ft | 218 kts | 243° |
| 2026-05-08 20:56 | 33.24797 | -97.03784 | 3042 ft | 204 kts | 218° |
| 2026-05-08 20:56 | 33.23581 | -97.04588 | 3020 ft | 201 kts | 196° |
| 2026-05-08 20:57 | 33.22220 | -97.04888 | 3010 ft | 198 kts | 184° |
| 2026-05-08 20:57 | 33.20848 | -97.04955 | 3006 ft | 193 kts | 180° |
| 2026-05-08 20:57 | 33.19497 | -97.04960 | 3026 ft | 199 kts | 180° |
| 2026-05-08 20:57 | 33.18098 | -97.04964 | 3001 ft | 197 kts | 180° |
| 2026-05-08 20:58 | 33.16787 | -97.04968 | 3013 ft | 181 kts | 180° |
| 2026-05-08 20:58 | 33.15551 | -97.04974 | 3008 ft | 173 kts | 180° |
| 2026-05-08 20:58 | 33.14344 | -97.04981 | 3011 ft | 177 kts | 180° |
| 2026-05-08 20:58 | 33.13113 | -97.04986 | 3018 ft | 175 kts | 180° |
| 2026-05-08 20:59 | 33.11908 | -97.04992 | 3010 ft | 177 kts | 179° |
| 2026-05-08 20:59 | 33.10654 | -97.04997 | 3004 ft | 179 kts | 179° |
| 2026-05-08 20:59 | 33.09417 | -97.05002 | 3017 ft | 181 kts | 180° |
| 2026-05-08 20:59 | 33.08169 | -97.05007 | 3004 ft | 176 kts | 180° |
| 2026-05-08 21:00 | 33.06954 | -97.05013 | 3004 ft | 176 kts | 180° |
| 2026-05-08 21:00 | 33.05771 | -97.05018 | 2995 ft | 160 kts | 179° |
| 2026-05-08 21:00 | 33.04694 | -97.05023 | 3010 ft | 156 kts | 180° |
| 2026-05-08 21:00 | 33.03602 | -97.05027 | 2921 ft | 160 kts | 180° |
| 2026-05-08 21:01 | 33.02532 | -97.05031 | 2736 ft | 147 kts | 180° |
| 2026-05-08 21:01 | 33.01547 | -97.05035 | 2558 ft | 144 kts | 179° |
| 2026-05-08 21:01 | 33.00545 | -97.05040 | 2369 ft | 141 kts | 178° |
| 2026-05-08 21:01 | 32.99564 | -97.05043 | 2135 ft | 139 kts | 178° |
| 2026-05-08 21:02 | 32.98632 | -97.05049 | 1968 ft | 129 kts | 178° |
| 2026-05-08 21:02 | 32.97749 | -97.05052 | 1797 ft | 124 kts | 178° |
| 2026-05-08 21:02 | 32.96875 | -97.05055 | 1645 ft | 126 kts | 178° |
| 2026-05-08 21:02 | 32.95980 | -97.05059 | 1461 ft | 127 kts | 176° |
| 2026-05-08 21:03 | 32.95101 | -97.05061 | 1327 ft | 127 kts | 178° |
| 2026-05-08 21:03 | 32.94181 | -97.05060 | 1123 ft | 137 kts | 176° |
| 2026-05-08 21:03 | 32.93248 | -97.05057 | 947 ft | 136 kts | 177° |
| 2026-05-08 21:03 | 32.92293 | -97.05069 | 785 ft | 138 kts | 178° |
| 2026-05-08 21:04 | 32.91348 | -97.05076 | 631 ft | 131 kts | 177° |
| 2026-05-08 21:04 | 32.90517 | -97.05072 | 598 ft | 104 kts | 180° |
| 2026-05-08 21:04 | 32.89949 | -97.05074 | 601 ft | 62 kts | 180° |
| 2026-05-08 21:04 | 32.89552 | -97.05096 | 600 ft | 53 kts | 183° |
| 2026-05-08 21:05 | 32.89279 | -97.05039 | 594 ft | 32 kts | 158° |
| 2026-05-08 21:05 | 32.89084 | -97.04914 | 590 ft | 31 kts | 149° |
| 2026-05-08 21:05 | 32.88884 | -97.04891 | 588 ft | 29 kts | 180° |
| 2026-05-08 21:05 | 32.88682 | -97.04891 | 588 ft | 28 kts | 182° |
| 2026-05-08 21:06 | 32.88529 | -97.04886 | 589 ft | 11 kts | 154° |
| 2026-05-08 21:06 | 32.88504 | -97.04802 | 588 ft | 13 kts | 88° |
| 2026-05-08 21:06 | 32.88505 | -97.04681 | 587 ft | 16 kts | 90° |
| 2026-05-08 21:06 | 32.88503 | -97.04548 | 589 ft | 16 kts | 90° |
| 2026-05-08 21:07 | 32.88503 | -97.04411 | 594 ft | 17 kts | 90° |
| 2026-05-08 21:07 | 32.88502 | -97.04259 | 600 ft | 20 kts | 91° |
| 2026-05-08 21:07 | 32.88501 | -97.04073 | 600 ft | 25 kts | 90° |
| 2026-05-08 21:07 | 32.88499 | -97.03834 | 594 ft | 33 kts | 90° |
| 2026-05-08 21:08 | 32.88499 | -97.03627 | 582 ft | 24 kts | 89° |
| 2026-05-08 21:08 | 32.88499 | -97.03417 | 578 ft | 27 kts | 91° |
| 2026-05-08 21:08 | 32.88499 | -97.03261 | 574 ft | 17 kts | 90° |
| 2026-05-08 21:08 | 32.88608 | -97.03201 | 575 ft | 25 kts | 0° |
| 2026-05-08 21:09 | 32.88818 | -97.03201 | 572 ft | 34 kts | 0° |
| 2026-05-08 21:09 | 32.89067 | -97.03196 | 574 ft | 38 kts | 1° |
| 2026-05-08 21:09 | 32.89344 | -97.03194 | 576 ft | 41 kts | 1° |
| 2026-05-08 21:09 | 32.89602 | -97.03191 | 581 ft | 13 kts | 0° |
| 2026-05-08 21:10 | 32.89611 | -97.03197 | 580 ft | 2 kts | 312° |
| 2026-05-08 21:10 | 32.89619 | -97.03276 | 584 ft | 17 kts | 279° |
| 2026-05-08 21:10 | 32.89684 | -97.03317 | 586 ft | 1 kts | 354° |
| 2026-05-08 21:10 | 32.89721 | -97.03319 | 586 ft | 10 kts | 358° |
| 2026-05-08 21:11 | 32.89765 | -97.03344 | 586 ft | 4 kts | 274° |
| 2026-05-08 21:11 | 32.89754 | -97.03386 | 586 ft | 8 kts | 250° |
| 2026-05-08 21:11 | 32.89743 | -97.03465 | 586 ft | 9 kts | 273° |
| 2026-05-08 21:11 | 32.89745 | -97.03498 | 587 ft | 0 kts | 274° |